createdAt,value
2017-10-24T00:00:55.846Z,12.8
2017-10-24T00:01:57.462Z,12.8
2017-10-24T00:02:59.086Z,12.8
2017-10-24T00:04:00.693Z,12.7
2017-10-24T00:05:02.308Z,12.7
2017-10-24T00:06:03.924Z,12.7
2017-10-24T00:07:05.538Z,12.7
2017-10-24T00:08:07.156Z,12.8
2017-10-24T00:09:08.774Z,12.7
2017-10-24T00:10:10.388Z,12.6
2017-10-24T00:11:12.005Z,12.7
2017-10-24T00:12:13.615Z,12.6
2017-10-24T00:13:15.230Z,12.7
2017-10-24T00:14:16.844Z,12.7
2017-10-24T00:15:18.459Z,12.7
2017-10-24T00:16:20.077Z,12.7
2017-10-24T00:17:21.691Z,12.7
2017-10-24T00:18:23.303Z,12.7
2017-10-24T00:19:24.918Z,12.7
2017-10-24T00:20:26.532Z,12.6
2017-10-24T00:21:28.146Z,12.6
2017-10-24T00:22:29.762Z,12.7
2017-10-24T00:23:31.382Z,12.6
2017-10-24T00:24:32.998Z,12.6
2017-10-24T00:25:34.608Z,12.7
2017-10-24T00:26:36.221Z,12.7
2017-10-24T00:27:37.837Z,12.8
2017-10-24T00:28:39.451Z,12.7
2017-10-24T00:29:41.065Z,12.7
2017-10-24T00:30:42.685Z,12.7
2017-10-24T00:31:44.300Z,12.6
2017-10-24T00:32:45.912Z,12.7
2017-10-24T00:33:47.529Z,12.7
2017-10-24T00:34:49.143Z,12.7
2017-10-24T00:35:50.764Z,12.8
2017-10-24T00:36:52.375Z,12.8
2017-10-24T00:37:53.992Z,12.8
2017-10-24T00:38:55.604Z,12.7
2017-10-24T00:39:57.226Z,12.8
2017-10-24T00:40:58.832Z,12.8
2017-10-24T00:42:00.449Z,12.8
2017-10-24T00:43:02.064Z,12.8
2017-10-24T00:44:03.688Z,12.8
2017-10-24T00:45:05.308Z,12.9
2017-10-24T00:46:06.920Z,12.8
2017-10-24T00:47:08.536Z,12.7
2017-10-24T00:48:10.160Z,12.6
2017-10-24T00:49:11.773Z,12.6
2017-10-24T00:50:13.389Z,12.6
2017-10-24T00:51:15.001Z,12.6
2017-10-24T00:52:16.619Z,12.6
2017-10-24T00:53:18.237Z,12.6
2017-10-24T00:54:19.849Z,12.8
2017-10-24T00:55:21.465Z,12.7
2017-10-24T00:56:23.083Z,12.7
2017-10-24T00:57:24.700Z,12.6
2017-10-24T00:58:26.319Z,12.7
2017-10-24T00:59:27.936Z,12.7
2017-10-24T01:00:29.549Z,12.7
2017-10-24T01:01:31.162Z,12.6
2017-10-24T01:02:32.777Z,12.5
2017-10-24T01:03:34.391Z,12.5
2017-10-24T01:04:36.008Z,12.5
2017-10-24T01:05:37.625Z,12.6
2017-10-24T01:06:39.249Z,12.6
2017-10-24T01:07:40.859Z,12.6
2017-10-24T01:08:42.472Z,12.6
2017-10-24T01:09:44.094Z,12.5
2017-10-24T01:10:45.713Z,12.6
2017-10-24T01:11:47.322Z,12.6
2017-10-24T01:12:48.944Z,12.6
2017-10-24T01:13:50.561Z,12.7
2017-10-24T01:14:52.169Z,12.7
2017-10-24T01:15:53.795Z,12.7
2017-10-24T01:16:55.402Z,12.7
2017-10-24T01:17:57.020Z,12.7
2017-10-24T01:18:58.636Z,12.7
2017-10-24T01:20:00.287Z,12.8
2017-10-24T01:21:02.018Z,12.9
2017-10-24T01:22:03.628Z,12.8
2017-10-24T01:23:05.234Z,12.9
2017-10-24T01:24:06.849Z,12.8
2017-10-24T01:25:08.461Z,12.9
2017-10-24T01:26:10.074Z,12.9
2017-10-24T01:27:11.694Z,12.8
2017-10-24T01:28:13.312Z,13.0
2017-10-24T01:29:14.917Z,12.9
2017-10-24T01:30:16.531Z,13.0
2017-10-24T01:31:18.143Z,12.9
2017-10-24T01:32:19.760Z,12.9
2017-10-24T01:33:21.373Z,12.9
2017-10-24T01:34:22.987Z,12.9
2017-10-24T01:35:24.600Z,12.9
2017-10-24T01:36:26.213Z,12.9
2017-10-24T01:37:27.827Z,12.9
2017-10-24T01:38:29.442Z,12.9
2017-10-24T01:39:31.056Z,12.9
2017-10-24T01:40:32.672Z,12.9
2017-10-24T01:41:34.288Z,12.9
2017-10-24T01:42:35.907Z,12.9
2017-10-24T01:43:37.518Z,12.9
2017-10-24T01:44:39.131Z,12.9
2017-10-24T01:45:40.747Z,12.9
2017-10-24T01:46:42.360Z,13.0
2017-10-24T01:47:43.975Z,12.9
2017-10-24T01:48:45.589Z,12.8
2017-10-24T01:49:47.200Z,13.0
2017-10-24T01:50:48.809Z,12.8
2017-10-24T01:51:50.421Z,12.9
2017-10-24T01:52:52.034Z,12.8
2017-10-24T01:53:53.652Z,12.8
2017-10-24T01:54:55.261Z,12.8
2017-10-24T01:55:56.876Z,12.8
2017-10-24T01:56:58.489Z,12.8
2017-10-24T01:58:00.141Z,12.9
2017-10-24T01:59:01.753Z,12.8
2017-10-24T02:00:03.364Z,12.8
2017-10-24T02:01:04.980Z,12.9
2017-10-24T02:02:06.591Z,12.8
2017-10-24T02:03:08.202Z,12.8
2017-10-24T02:04:09.818Z,12.8
2017-10-24T02:05:11.435Z,12.9
2017-10-24T02:06:13.044Z,12.8
2017-10-24T02:07:14.659Z,12.8
2017-10-24T02:08:16.282Z,12.8
2017-10-24T02:09:17.882Z,12.8
2017-10-24T02:10:19.495Z,12.8
2017-10-24T02:11:21.109Z,12.8
2017-10-24T02:12:22.720Z,12.8
2017-10-24T02:13:24.332Z,12.9
2017-10-24T02:14:25.956Z,12.8
2017-10-24T02:15:27.562Z,12.8
2017-10-24T02:16:29.175Z,12.7
2017-10-24T02:17:30.794Z,12.7
2017-10-24T02:18:32.406Z,12.7
2017-10-24T02:19:34.010Z,12.8
2017-10-24T02:20:35.620Z,12.8
2017-10-24T02:21:37.234Z,12.9
2017-10-24T02:22:38.846Z,12.8
2017-10-24T02:23:40.459Z,12.9
2017-10-24T02:24:42.073Z,12.9
2017-10-24T02:25:43.686Z,12.9
2017-10-24T02:26:45.299Z,12.8
2017-10-24T02:27:46.920Z,12.8
2017-10-24T02:28:48.528Z,12.8
2017-10-24T02:29:50.138Z,12.8
2017-10-24T02:30:51.760Z,12.8
2017-10-24T02:31:53.371Z,12.8
2017-10-24T02:32:54.986Z,12.7
2017-10-24T02:33:56.602Z,12.7
2017-10-24T02:34:58.220Z,12.8
2017-10-24T02:35:59.828Z,12.8
2017-10-24T02:37:01.438Z,12.8
2017-10-24T02:38:03.057Z,12.7
2017-10-24T02:39:04.668Z,12.7
2017-10-24T02:40:06.284Z,12.7
2017-10-24T02:41:07.891Z,12.7
2017-10-24T02:42:09.504Z,12.7
2017-10-24T02:43:11.117Z,12.7
2017-10-24T02:44:12.732Z,12.7
2017-10-24T02:45:14.344Z,12.7
2017-10-24T02:46:15.960Z,12.6
2017-10-24T02:47:17.572Z,12.7
2017-10-24T02:48:19.187Z,12.8
2017-10-24T02:49:20.803Z,12.9
2017-10-24T02:50:22.418Z,12.7
2017-10-24T02:51:24.083Z,12.7
2017-10-24T02:52:25.690Z,12.6
2017-10-24T02:53:27.303Z,12.7
2017-10-24T02:54:28.920Z,12.7
2017-10-24T02:55:30.528Z,12.7
2017-10-24T02:56:32.136Z,12.7
2017-10-24T02:57:33.747Z,12.6
2017-10-24T02:58:35.359Z,12.8
2017-10-24T02:59:36.974Z,12.7
2017-10-24T03:00:38.592Z,12.7
2017-10-24T03:01:40.208Z,12.8
2017-10-24T03:02:41.821Z,12.7
2017-10-24T03:03:43.433Z,12.6
2017-10-24T03:04:45.048Z,12.6
2017-10-24T03:05:46.657Z,12.7
2017-10-24T03:06:48.275Z,12.6
2017-10-24T03:07:49.889Z,12.6
2017-10-24T03:08:51.512Z,12.6
2017-10-24T03:09:53.115Z,12.7
2017-10-24T03:10:54.728Z,12.6
2017-10-24T03:11:56.341Z,12.7
2017-10-24T03:12:57.957Z,12.6
2017-10-24T03:13:59.572Z,12.6
2017-10-24T03:15:01.185Z,12.7
2017-10-24T03:16:02.816Z,12.6
2017-10-24T03:17:04.419Z,12.7
2017-10-24T03:18:06.033Z,12.7
2017-10-24T03:19:07.647Z,12.7
2017-10-24T03:20:09.255Z,12.6
2017-10-24T03:21:10.870Z,12.5
2017-10-24T03:22:12.480Z,12.7
2017-10-24T03:23:14.096Z,12.6
2017-10-24T03:24:15.712Z,12.7
2017-10-24T03:25:17.458Z,12.5
2017-10-24T03:26:19.093Z,12.5
2017-10-24T03:27:20.695Z,12.6
2017-10-24T03:28:22.314Z,12.5
2017-10-24T03:29:24.310Z,12.5
2017-10-24T03:30:25.933Z,12.5
2017-10-24T03:31:27.542Z,12.5
2017-10-24T03:32:29.152Z,12.5
2017-10-24T03:33:30.802Z,12.5
2017-10-24T03:34:32.415Z,12.5
2017-10-24T03:35:34.031Z,12.5
2017-10-24T03:36:35.639Z,12.5
2017-10-24T03:37:37.253Z,12.5
2017-10-24T03:38:38.866Z,12.5
2017-10-24T03:39:40.479Z,12.5
2017-10-24T03:40:42.088Z,12.5
2017-10-24T03:41:43.704Z,12.5
2017-10-24T03:42:45.412Z,12.5
2017-10-24T03:43:47.025Z,12.5
2017-10-24T03:44:48.638Z,12.5
2017-10-24T03:45:50.248Z,12.5
2017-10-24T03:46:51.864Z,12.5
2017-10-24T03:47:53.489Z,12.5
2017-10-24T03:48:55.090Z,12.4
2017-10-24T03:49:56.704Z,12.5
2017-10-24T03:50:58.330Z,12.4
2017-10-24T03:51:59.930Z,12.3
2017-10-24T03:53:01.542Z,12.3
2017-10-24T03:54:03.154Z,12.5
2017-10-24T03:55:04.762Z,12.5
2017-10-24T03:56:06.375Z,12.3
2017-10-24T03:57:07.989Z,12.3
2017-10-24T03:58:09.602Z,12.5
2017-10-24T03:59:11.216Z,12.5
2017-10-24T04:00:12.828Z,12.5
2017-10-24T04:01:14.443Z,12.5
2017-10-24T04:02:16.055Z,12.5
2017-10-24T04:03:17.666Z,12.4
2017-10-24T04:04:19.278Z,12.4
2017-10-24T04:05:20.893Z,12.3
2017-10-24T04:06:22.506Z,12.4
2017-10-24T04:07:24.118Z,12.5
2017-10-24T04:08:25.730Z,12.5
2017-10-24T04:09:27.343Z,12.5
2017-10-24T04:10:28.959Z,12.5
2017-10-24T04:11:30.568Z,12.6
2017-10-24T04:12:32.177Z,12.6
2017-10-24T04:13:33.790Z,12.7
2017-10-24T04:14:35.401Z,12.5
2017-10-24T04:15:37.015Z,12.6
2017-10-24T04:16:38.630Z,12.5
2017-10-24T04:17:40.246Z,12.6
2017-10-24T04:18:41.866Z,12.6
2017-10-24T04:19:43.473Z,12.7
2017-10-24T04:20:45.084Z,12.6
2017-10-24T04:21:46.695Z,12.5
2017-10-24T04:22:48.307Z,12.4
2017-10-24T04:23:49.920Z,12.4
2017-10-24T04:24:51.535Z,12.5
2017-10-24T04:25:53.149Z,12.5
2017-10-24T04:26:54.764Z,12.5
2017-10-24T04:27:56.379Z,12.5
2017-10-24T04:28:57.995Z,12.5
2017-10-24T04:29:59.600Z,12.5
2017-10-24T04:31:01.212Z,12.6
2017-10-24T04:32:02.829Z,12.5
2017-10-24T04:33:04.441Z,12.5
2017-10-24T04:34:06.060Z,12.5
2017-10-24T04:35:07.674Z,12.5
2017-10-24T04:36:09.285Z,12.5
2017-10-24T04:37:10.896Z,12.5
2017-10-24T04:38:12.507Z,12.5
2017-10-24T04:39:14.120Z,12.5
2017-10-24T04:40:15.748Z,12.5
2017-10-24T04:41:17.356Z,12.5
2017-10-24T04:42:18.971Z,12.5
2017-10-24T04:43:20.592Z,12.6
2017-10-24T04:44:22.194Z,12.5
2017-10-24T04:45:23.809Z,12.5
2017-10-24T04:46:25.418Z,12.5
2017-10-24T04:47:27.058Z,12.6
2017-10-24T04:48:28.657Z,12.7
2017-10-24T04:49:30.274Z,12.6
2017-10-24T04:50:31.887Z,12.7
2017-10-24T04:51:33.497Z,12.5
2017-10-24T04:52:35.246Z,12.5
2017-10-24T04:53:36.859Z,12.6
2017-10-24T04:54:39.095Z,12.5
2017-10-24T04:55:40.570Z,12.5
2017-10-24T04:56:42.181Z,12.6
2017-10-24T04:57:43.805Z,12.6
2017-10-24T04:58:45.457Z,12.6
2017-10-24T04:59:47.087Z,12.7
2017-10-24T05:00:48.691Z,12.7
2017-10-24T05:01:50.318Z,12.7
2017-10-24T05:02:51.949Z,12.7
2017-10-24T05:03:53.597Z,12.7
2017-10-24T05:04:55.209Z,12.6
2017-10-24T05:05:56.823Z,12.7
2017-10-24T05:06:58.464Z,12.6
2017-10-24T05:08:00.102Z,12.6
2017-10-24T05:09:01.715Z,12.7
2017-10-24T05:10:03.334Z,12.6
2017-10-24T05:11:04.960Z,12.6
2017-10-24T05:12:06.576Z,12.6
2017-10-24T05:13:08.190Z,12.6
2017-10-24T05:14:09.807Z,12.6
2017-10-24T05:15:11.425Z,12.7
2017-10-24T05:16:13.043Z,12.6
2017-10-24T05:17:14.668Z,12.6
2017-10-24T05:18:16.295Z,12.6
2017-10-24T05:19:17.913Z,12.6
2017-10-24T05:20:19.525Z,12.6
2017-10-24T05:21:21.215Z,12.7
2017-10-24T05:22:22.838Z,12.7
2017-10-24T05:23:24.455Z,12.6
2017-10-24T05:24:26.095Z,12.6
2017-10-24T05:25:27.727Z,12.6
2017-10-24T05:26:29.446Z,12.6
2017-10-24T05:27:31.068Z,12.7
2017-10-24T05:28:32.697Z,12.6
2017-10-24T05:29:34.321Z,12.7
2017-10-24T05:30:35.939Z,12.7
2017-10-24T05:31:37.550Z,12.8
2017-10-24T05:32:39.165Z,12.8
2017-10-24T05:33:40.781Z,12.7
2017-10-24T05:34:42.393Z,12.6
2017-10-24T05:35:44.007Z,12.7
2017-10-24T05:36:45.625Z,12.8
2017-10-24T05:37:47.261Z,12.7
2017-10-24T05:38:48.867Z,12.7
2017-10-24T05:39:50.484Z,12.6
2017-10-24T05:40:52.097Z,12.7
2017-10-24T05:41:53.709Z,12.7
2017-10-24T05:42:55.322Z,12.6
2017-10-24T05:43:56.933Z,12.8
2017-10-24T05:44:58.546Z,12.7
2017-10-24T05:46:00.158Z,12.8
2017-10-24T05:47:01.850Z,12.7
2017-10-24T05:48:03.469Z,12.7
2017-10-24T05:49:05.079Z,12.6
2017-10-24T05:50:06.690Z,12.7
2017-10-24T05:51:08.304Z,12.6
2017-10-24T05:52:09.911Z,12.6
2017-10-24T05:53:11.534Z,12.7
2017-10-24T05:54:13.145Z,12.6
2017-10-24T05:55:14.755Z,12.7
2017-10-24T05:56:16.368Z,12.8
2017-10-24T05:57:17.980Z,12.8
2017-10-24T05:58:19.607Z,12.7
2017-10-24T05:59:21.234Z,12.7
2017-10-24T06:00:22.834Z,12.7
2017-10-24T06:01:24.448Z,12.7
2017-10-24T06:02:26.063Z,12.7
2017-10-24T06:03:27.679Z,12.7
2017-10-24T06:04:29.288Z,12.8
2017-10-24T06:05:30.914Z,12.7
2017-10-24T06:06:32.518Z,12.8
2017-10-24T06:07:34.133Z,12.8
2017-10-24T06:08:35.747Z,12.7
2017-10-24T06:09:37.361Z,12.8
2017-10-24T06:10:38.976Z,12.8
2017-10-24T06:11:40.591Z,12.8
2017-10-24T06:12:42.203Z,12.8
2017-10-24T06:13:43.819Z,12.8
2017-10-24T06:14:45.433Z,12.8
2017-10-24T06:15:47.046Z,12.8
2017-10-24T06:16:48.658Z,12.8
2017-10-24T06:17:50.273Z,12.8
2017-10-24T06:18:51.901Z,12.8
2017-10-24T06:19:53.516Z,12.8
2017-10-24T06:20:55.127Z,12.8
2017-10-24T06:21:56.746Z,12.8
2017-10-24T06:22:58.361Z,12.8
2017-10-24T06:23:59.973Z,12.8
2017-10-24T06:25:01.588Z,12.9
2017-10-24T06:26:03.202Z,12.9
2017-10-24T06:27:04.828Z,12.8
2017-10-24T06:28:06.434Z,12.8
2017-10-24T06:29:08.044Z,12.8
2017-10-24T06:30:09.665Z,12.9
2017-10-24T06:31:11.291Z,12.9
2017-10-24T06:32:12.893Z,12.8
2017-10-24T06:33:14.509Z,12.8
2017-10-24T06:34:16.126Z,12.8
2017-10-24T06:35:17.740Z,12.8
2017-10-24T06:36:19.357Z,12.9
2017-10-24T06:37:20.977Z,12.8
2017-10-24T06:38:22.587Z,12.8
2017-10-24T06:39:24.204Z,12.9
2017-10-24T06:40:25.818Z,12.9
2017-10-24T06:41:27.433Z,12.8
2017-10-24T06:42:29.051Z,12.8
2017-10-24T06:43:44.598Z,12.9
2017-10-24T06:44:46.216Z,12.8
2017-10-24T06:45:47.833Z,12.9
2017-10-24T06:46:49.448Z,12.8
2017-10-24T06:47:51.060Z,12.8
2017-10-24T06:48:52.675Z,12.9
2017-10-24T06:49:54.290Z,12.8
2017-10-24T06:50:55.905Z,12.9
2017-10-24T06:51:57.524Z,12.8
2017-10-24T06:52:59.136Z,12.8
2017-10-24T06:54:00.753Z,12.9
2017-10-24T06:55:02.368Z,12.9
2017-10-24T06:56:03.981Z,12.9
2017-10-24T06:57:05.598Z,12.8
2017-10-24T06:58:07.217Z,12.8
2017-10-24T06:59:08.834Z,12.7
2017-10-24T07:00:10.450Z,12.8
2017-10-24T07:01:12.069Z,12.9
2017-10-24T07:02:13.677Z,12.9
2017-10-24T07:03:15.294Z,12.8
2017-10-24T07:04:16.913Z,12.9
2017-10-24T07:05:18.527Z,13.0
2017-10-24T07:06:20.143Z,12.9
2017-10-24T07:07:21.758Z,12.8
2017-10-24T07:08:23.374Z,12.9
2017-10-24T07:09:24.991Z,12.8
2017-10-24T07:10:26.609Z,12.9
2017-10-24T07:11:28.228Z,12.8
2017-10-24T07:12:29.844Z,12.9
2017-10-24T07:13:31.462Z,13.0
2017-10-24T07:14:33.078Z,12.8
2017-10-24T07:15:34.695Z,12.8
2017-10-24T07:16:36.307Z,12.8
2017-10-24T07:17:37.924Z,12.9
2017-10-24T07:18:39.544Z,12.9
2017-10-24T07:19:41.158Z,12.8
2017-10-24T07:20:42.778Z,12.9
2017-10-24T07:21:44.390Z,12.8
2017-10-24T07:22:46.005Z,12.9
2017-10-24T07:23:47.618Z,12.9
2017-10-24T07:24:49.237Z,13.0
2017-10-24T07:25:50.855Z,12.9
2017-10-24T07:26:52.472Z,12.9
2017-10-24T07:27:54.090Z,12.9
2017-10-24T07:28:55.704Z,13.0
2017-10-24T07:29:57.322Z,12.9
2017-10-24T07:30:58.939Z,13.0
2017-10-24T07:32:00.557Z,12.9
2017-10-24T07:33:02.172Z,12.9
2017-10-24T07:34:03.789Z,13.0
2017-10-24T07:35:05.408Z,13.0
2017-10-24T07:36:07.031Z,13.0
2017-10-24T07:37:08.645Z,13.0
2017-10-24T07:38:10.252Z,13.0
2017-10-24T07:39:11.870Z,13.0
2017-10-24T07:40:13.488Z,13.0
2017-10-24T07:41:15.103Z,13.1
2017-10-24T07:42:16.724Z,13.0
2017-10-24T07:43:18.338Z,13.0
2017-10-24T07:44:19.954Z,13.1
2017-10-24T07:45:21.566Z,13.0
2017-10-24T07:46:23.181Z,13.0
2017-10-24T07:47:24.800Z,12.9
2017-10-24T07:48:26.417Z,13.0
2017-10-24T07:49:28.035Z,13.1
2017-10-24T07:50:29.649Z,13.1
2017-10-24T07:51:31.265Z,13.0
2017-10-24T07:52:32.881Z,13.1
2017-10-24T07:53:34.519Z,13.2
2017-10-24T07:54:36.137Z,13.1
2017-10-24T07:55:37.760Z,13.2
2017-10-24T07:56:39.379Z,13.1
2017-10-24T07:57:40.989Z,13.1
2017-10-24T07:58:42.612Z,13.1
2017-10-24T07:59:44.236Z,13.2
2017-10-24T08:00:45.879Z,13.1
2017-10-24T08:01:47.505Z,13.2
2017-10-24T08:02:49.124Z,13.2
2017-10-24T08:03:50.772Z,13.2
2017-10-24T08:04:52.407Z,13.1
2017-10-24T08:05:54.024Z,13.2
2017-10-24T08:06:55.641Z,13.1
2017-10-24T08:07:57.255Z,13.2
2017-10-24T08:08:58.876Z,13.2
2017-10-24T08:10:00.492Z,13.2
2017-10-24T08:11:02.114Z,13.3
2017-10-24T08:12:03.726Z,13.3
2017-10-24T08:13:05.345Z,13.2
2017-10-24T08:14:06.965Z,13.2
2017-10-24T08:15:08.586Z,13.3
2017-10-24T08:16:10.203Z,13.3
2017-10-24T08:17:11.821Z,13.3
2017-10-24T08:18:13.444Z,13.3
2017-10-24T08:19:15.054Z,13.4
2017-10-24T08:20:16.674Z,13.4
2017-10-24T08:21:18.289Z,13.5
2017-10-24T08:22:19.907Z,13.5
2017-10-24T08:23:21.527Z,13.4
2017-10-24T08:24:23.145Z,13.5
2017-10-24T08:25:24.764Z,13.5
2017-10-24T08:26:26.385Z,13.4
2017-10-24T08:27:27.993Z,13.4
2017-10-24T08:28:29.627Z,13.5
2017-10-24T08:29:31.259Z,13.5
2017-10-24T08:30:32.880Z,13.6
2017-10-24T08:31:34.485Z,13.6
2017-10-24T08:32:36.113Z,13.5
2017-10-24T08:33:37.731Z,13.6
2017-10-24T08:34:39.348Z,13.6
2017-10-24T08:35:40.980Z,13.5
2017-10-24T08:36:42.581Z,13.6
2017-10-24T08:37:44.198Z,13.6
2017-10-24T08:38:45.814Z,13.6
2017-10-24T08:39:47.441Z,13.6
2017-10-24T08:40:49.056Z,13.7
2017-10-24T08:41:50.670Z,13.6
2017-10-24T08:42:52.288Z,13.6
2017-10-24T08:43:53.908Z,13.6
2017-10-24T08:44:55.525Z,13.6
2017-10-24T08:45:57.149Z,13.6
2017-10-24T08:46:58.770Z,13.7
2017-10-24T08:48:00.387Z,13.7
2017-10-24T08:49:02.007Z,13.6
2017-10-24T08:50:03.628Z,13.6
2017-10-24T08:51:05.248Z,13.6
2017-10-24T08:52:06.866Z,13.7
2017-10-24T08:53:08.484Z,13.8
2017-10-24T08:54:10.105Z,13.7
2017-10-24T08:55:11.720Z,13.7
2017-10-24T08:56:13.341Z,13.8
2017-10-24T08:57:14.956Z,13.7
2017-10-24T08:58:16.578Z,13.8
2017-10-24T08:59:18.189Z,13.8
2017-10-24T09:00:19.807Z,13.8
2017-10-24T09:01:21.427Z,13.8
2017-10-24T09:02:23.054Z,13.8
2017-10-24T09:03:24.674Z,13.8
2017-10-24T09:04:26.292Z,13.9
2017-10-24T09:05:27.910Z,13.8
2017-10-24T09:06:29.535Z,13.9
2017-10-24T09:07:31.149Z,13.9
2017-10-24T09:08:32.766Z,13.9
2017-10-24T09:09:34.381Z,13.9
2017-10-24T09:10:36.000Z,13.9
2017-10-24T09:11:37.616Z,13.9
2017-10-24T09:12:39.232Z,14.0
2017-10-24T09:13:40.853Z,14.0
2017-10-24T09:14:42.482Z,14.0
2017-10-24T09:15:44.097Z,14.2
2017-10-24T09:16:45.718Z,14.2
2017-10-24T09:17:47.336Z,14.1
2017-10-24T09:18:48.956Z,14.1
2017-10-24T09:19:50.572Z,14.2
2017-10-24T09:20:52.190Z,14.1
2017-10-24T09:21:53.811Z,14.1
2017-10-24T09:22:55.432Z,14.1
2017-10-24T09:23:57.050Z,14.2
2017-10-24T09:24:58.685Z,14.2
2017-10-24T09:26:00.306Z,14.2
2017-10-24T09:27:01.922Z,14.1
2017-10-24T09:28:03.539Z,14.1
2017-10-24T09:29:05.164Z,14.2
2017-10-24T09:30:06.786Z,14.3
2017-10-24T09:31:08.401Z,14.3
2017-10-24T09:32:10.019Z,14.3
2017-10-24T09:33:11.652Z,14.3
2017-10-24T09:34:13.273Z,14.4
2017-10-24T09:35:14.896Z,14.4
2017-10-24T09:36:16.517Z,14.3
2017-10-24T09:37:18.135Z,14.4
2017-10-24T09:38:19.753Z,14.4
2017-10-24T09:39:21.374Z,14.5
2017-10-24T09:40:22.992Z,14.6
2017-10-24T09:41:24.612Z,14.6
2017-10-24T09:42:26.232Z,14.6
2017-10-24T09:43:27.852Z,14.8
2017-10-24T09:44:29.475Z,14.9
2017-10-24T09:45:31.089Z,15.0
2017-10-24T09:46:32.712Z,15.0
2017-10-24T09:47:34.342Z,15.0
2017-10-24T09:48:35.969Z,15.2
2017-10-24T09:49:37.584Z,15.2
2017-10-24T09:50:39.217Z,15.2
2017-10-24T09:51:40.841Z,15.1
2017-10-24T09:52:42.458Z,15.2
2017-10-24T09:53:44.077Z,15.2
2017-10-24T09:54:45.696Z,15.3
2017-10-24T09:55:47.317Z,15.2
2017-10-24T09:56:48.937Z,15.2
2017-10-24T09:57:50.554Z,15.2
2017-10-24T09:58:52.178Z,15.2
2017-10-24T09:59:53.795Z,15.3
2017-10-24T10:00:55.413Z,15.2
2017-10-24T10:01:57.030Z,15.3
2017-10-24T10:02:58.650Z,15.2
2017-10-24T10:04:00.267Z,15.2
2017-10-24T10:05:01.886Z,15.1
2017-10-24T10:06:03.505Z,15.1
2017-10-24T10:07:05.121Z,15.1
2017-10-24T10:08:06.739Z,15.1
2017-10-24T10:09:08.358Z,15.2
2017-10-24T10:10:10.002Z,15.2
2017-10-24T10:11:11.623Z,15.2
2017-10-24T10:12:13.240Z,15.2
2017-10-24T10:13:14.861Z,15.2
2017-10-24T10:14:16.482Z,15.2
2017-10-24T10:15:18.092Z,15.3
2017-10-24T10:16:19.713Z,15.2
2017-10-24T10:17:21.331Z,15.3
2017-10-24T10:18:22.953Z,15.2
2017-10-24T10:19:24.569Z,15.2
2017-10-24T10:20:26.190Z,15.4
2017-10-24T10:21:27.808Z,15.4
2017-10-24T10:22:29.427Z,15.4
2017-10-24T10:23:31.062Z,15.4
2017-10-24T10:24:32.683Z,15.4
2017-10-24T10:25:34.303Z,15.4
2017-10-24T10:26:35.923Z,15.4
2017-10-24T10:27:37.546Z,15.5
2017-10-24T10:28:39.164Z,15.4
2017-10-24T10:29:40.787Z,15.6
2017-10-24T10:30:42.411Z,15.6
2017-10-24T10:31:44.032Z,15.6
2017-10-24T10:32:45.649Z,15.7
2017-10-24T10:33:47.290Z,15.6
2017-10-24T10:34:48.912Z,15.7
2017-10-24T10:35:50.527Z,15.8
2017-10-24T10:36:52.373Z,15.7
2017-10-24T10:37:53.966Z,15.8
2017-10-24T10:38:55.587Z,15.9
2017-10-24T10:39:57.206Z,15.8
2017-10-24T10:40:58.827Z,15.9
2017-10-24T10:42:00.449Z,15.9
2017-10-24T10:43:02.066Z,15.8
2017-10-24T10:44:03.684Z,15.9
2017-10-24T10:45:05.305Z,15.9
2017-10-24T10:46:06.924Z,15.9
2017-10-24T10:47:08.544Z,15.9
2017-10-24T10:48:10.163Z,15.8
2017-10-24T10:49:11.786Z,15.9
2017-10-24T10:50:13.403Z,15.9
2017-10-24T10:51:15.020Z,15.9
2017-10-24T10:52:16.641Z,15.8
2017-10-24T10:53:18.264Z,15.9
2017-10-24T10:54:19.885Z,15.9
2017-10-24T10:55:21.506Z,15.9
2017-10-24T10:56:23.135Z,16.0
2017-10-24T10:57:24.751Z,16.0
2017-10-24T10:58:26.369Z,16.0
2017-10-24T10:59:27.986Z,16.0
2017-10-24T11:00:29.610Z,16.1
2017-10-24T11:01:31.231Z,16.1
2017-10-24T11:02:32.849Z,16.1
2017-10-24T11:03:34.471Z,16.1
2017-10-24T11:04:36.091Z,16.2
2017-10-24T11:05:37.708Z,16.1
2017-10-24T11:06:39.328Z,16.1
2017-10-24T11:07:40.943Z,16.1
2017-10-24T11:08:42.567Z,16.2
2017-10-24T11:09:44.187Z,16.2
2017-10-24T11:10:45.805Z,16.1
2017-10-24T11:11:47.423Z,16.1
2017-10-24T11:12:49.038Z,16.2
2017-10-24T11:13:50.658Z,16.2
2017-10-24T11:14:52.278Z,16.2
2017-10-24T11:15:53.908Z,16.2
2017-10-24T11:16:55.514Z,16.1
2017-10-24T11:17:57.134Z,16.2
2017-10-24T11:18:58.753Z,16.2
2017-10-24T11:20:00.378Z,16.2
2017-10-24T11:21:01.992Z,16.2
2017-10-24T11:22:03.609Z,16.2
2017-10-24T11:23:05.228Z,16.1
2017-10-24T11:24:06.851Z,16.1
2017-10-24T11:25:08.466Z,16.1
2017-10-24T11:26:10.082Z,16.2
2017-10-24T11:27:11.716Z,16.2
2017-10-24T11:28:13.335Z,16.3
2017-10-24T11:29:14.960Z,16.2
2017-10-24T11:30:16.580Z,16.1
2017-10-24T11:31:18.206Z,16.2
2017-10-24T11:32:19.828Z,16.2
2017-10-24T11:33:21.443Z,16.1
2017-10-24T11:34:23.060Z,16.2
2017-10-24T11:35:24.680Z,16.2
2017-10-24T11:36:26.299Z,16.2
2017-10-24T11:37:27.916Z,16.1
2017-10-24T11:38:29.536Z,16.1
2017-10-24T11:39:31.162Z,16.2
2017-10-24T11:40:32.776Z,16.2
2017-10-24T11:41:34.396Z,16.3
2017-10-24T11:42:36.013Z,16.2
2017-10-24T11:43:37.632Z,16.2
2017-10-24T11:44:39.255Z,16.3
2017-10-24T11:45:40.869Z,16.3
2017-10-24T11:46:42.486Z,16.2
2017-10-24T11:47:44.107Z,16.3
2017-10-24T11:48:45.734Z,16.2
2017-10-24T11:49:47.355Z,16.2
2017-10-24T11:50:48.972Z,16.3
2017-10-24T11:51:50.591Z,16.3
2017-10-24T11:52:52.208Z,16.3
2017-10-24T11:53:53.832Z,16.3
2017-10-24T11:54:55.449Z,16.4
2017-10-24T11:55:57.066Z,16.3
2017-10-24T11:56:58.693Z,16.2
2017-10-24T11:58:00.313Z,16.3
2017-10-24T11:59:01.933Z,16.2
2017-10-24T12:00:03.549Z,16.2
2017-10-24T12:01:05.176Z,16.2
2017-10-24T12:02:06.794Z,16.3
2017-10-24T12:03:08.410Z,16.2
2017-10-24T12:04:10.031Z,16.2
2017-10-24T12:05:11.645Z,16.2
2017-10-24T12:06:13.269Z,16.2
2017-10-24T12:07:14.887Z,16.1
2017-10-24T12:08:16.511Z,16.1
2017-10-24T12:09:18.136Z,16.1
2017-10-24T12:10:19.755Z,16.0
2017-10-24T12:11:21.369Z,16.0
2017-10-24T12:12:22.987Z,15.9
2017-10-24T12:13:24.601Z,16.0
2017-10-24T12:14:26.218Z,15.9
2017-10-24T12:15:27.841Z,15.8
2017-10-24T12:16:29.458Z,15.9
2017-10-24T12:17:31.078Z,15.8
2017-10-24T12:18:32.693Z,15.8
2017-10-24T12:19:34.314Z,15.7
2017-10-24T12:20:35.930Z,15.7
2017-10-24T12:21:37.552Z,15.7
2017-10-24T12:22:39.171Z,15.6
2017-10-24T12:23:40.784Z,15.7
2017-10-24T12:24:42.402Z,15.7
2017-10-24T12:25:44.020Z,15.7
2017-10-24T12:26:45.641Z,15.6
2017-10-24T12:27:47.257Z,15.7
2017-10-24T12:28:48.877Z,15.6
2017-10-24T12:29:50.499Z,15.7
2017-10-24T12:30:52.116Z,15.6
2017-10-24T12:31:53.733Z,15.6
2017-10-24T12:32:55.349Z,15.6
2017-10-24T12:33:56.969Z,15.6
2017-10-24T12:34:58.587Z,15.6
2017-10-24T12:36:00.210Z,15.6
2017-10-24T12:37:01.829Z,15.5
2017-10-24T12:38:03.443Z,15.6
2017-10-24T12:39:05.061Z,15.6
2017-10-24T12:40:06.678Z,15.6
2017-10-24T12:41:08.296Z,15.5
2017-10-24T12:42:09.915Z,15.5
2017-10-24T12:43:11.531Z,15.5
2017-10-24T12:44:13.150Z,15.5
2017-10-24T12:45:14.765Z,15.5
2017-10-24T12:46:16.383Z,15.4
2017-10-24T12:47:18.002Z,15.5
2017-10-24T12:48:19.621Z,15.5
2017-10-24T12:49:21.240Z,15.6
2017-10-24T12:50:22.862Z,15.4
2017-10-24T12:51:24.482Z,15.5
2017-10-24T12:52:26.096Z,15.5
2017-10-24T12:53:27.848Z,15.6
2017-10-24T12:54:29.454Z,15.5
2017-10-24T12:55:31.076Z,15.5
2017-10-24T12:56:32.693Z,15.6
2017-10-24T12:57:34.311Z,15.5
2017-10-24T12:58:35.930Z,15.6
2017-10-24T12:59:37.544Z,15.5
2017-10-24T13:00:39.166Z,15.5
2017-10-24T13:01:40.778Z,15.6
2017-10-24T13:02:42.395Z,15.6
2017-10-24T13:03:44.012Z,15.6
2017-10-24T13:04:45.631Z,15.6
2017-10-24T13:05:47.271Z,15.6
2017-10-24T13:06:48.891Z,15.6
2017-10-24T13:07:50.508Z,15.6
2017-10-24T13:08:52.135Z,15.7
2017-10-24T13:09:53.754Z,15.7
2017-10-24T13:10:55.374Z,15.7
2017-10-24T13:11:56.992Z,15.6
2017-10-24T13:12:58.627Z,15.7
2017-10-24T13:14:00.240Z,15.7
2017-10-24T13:15:01.859Z,15.6
2017-10-24T13:16:03.476Z,15.7
2017-10-24T13:17:05.111Z,15.6
2017-10-24T13:18:06.724Z,15.6
2017-10-24T13:19:08.345Z,15.6
2017-10-24T13:20:09.962Z,15.6
2017-10-24T13:21:11.580Z,15.6
2017-10-24T13:22:13.196Z,15.6
2017-10-24T13:23:14.813Z,15.6
2017-10-24T13:24:16.432Z,15.6
2017-10-24T13:25:18.049Z,15.6
2017-10-24T13:26:19.668Z,15.5
2017-10-24T13:27:21.285Z,15.4
2017-10-24T13:28:22.901Z,15.5
2017-10-24T13:29:24.519Z,15.6
2017-10-24T13:30:26.138Z,15.5
2017-10-24T13:31:27.754Z,15.5
2017-10-24T13:32:29.374Z,15.4
2017-10-24T13:33:30.989Z,15.5
2017-10-24T13:34:32.607Z,15.5
2017-10-24T13:35:34.222Z,15.5
2017-10-24T13:36:35.842Z,15.4
2017-10-24T13:37:37.460Z,15.5
2017-10-24T13:38:39.080Z,15.5
2017-10-24T13:39:40.693Z,15.6
2017-10-24T13:40:42.342Z,15.6